createdAt,value
2023-05-19T00:00:37.569Z,6.92
2023-05-19T00:03:04.739Z,6.61
2023-05-19T00:05:32.154Z,6.88
2023-05-19T00:07:59.905Z,6.86
2023-05-19T00:10:27.048Z,6.83
2023-05-19T00:12:55.325Z,6.80
2023-05-19T00:15:22.610Z,6.63
2023-05-19T00:17:49.581Z,6.74
2023-05-19T00:20:16.203Z,6.70
2023-05-19T00:22:42.803Z,6.66
2023-05-19T00:25:10.162Z,6.62
2023-05-19T00:27:36.843Z,6.58
2023-05-19T00:30:05.987Z,6.51
2023-05-19T00:32:32.676Z,6.27
2023-05-19T00:34:59.682Z,6.43
2023-05-19T00:37:26.361Z,6.17
2023-05-19T00:39:52.926Z,6.36
2023-05-19T00:42:20.833Z,6.19
2023-05-19T00:44:47.403Z,6.25
2023-05-19T00:47:15.418Z,6.21
2023-05-19T00:49:42.018Z,6.17
2023-05-19T00:52:08.770Z,6.12
2023-05-19T00:54:35.921Z,6.06
2023-05-19T00:57:03.318Z,6.01
2023-05-19T00:59:30.022Z,5.94
2023-05-19T01:01:57.381Z,5.93
2023-05-19T01:04:25.656Z,5.84
2023-05-19T01:06:52.340Z,5.82
2023-05-19T01:09:19.750Z,5.46
2023-05-19T01:11:46.352Z,5.72
2023-05-19T01:14:13.085Z,5.71
2023-05-19T01:16:43.284Z,5.69
2023-05-19T01:19:20.876Z,5.63
2023-05-19T01:22:27.184Z,5.56
2023-05-19T01:25:18.315Z,5.43
2023-05-19T01:28:11.986Z,5.45
2023-05-19T01:30:42.075Z,5.23
2023-05-19T01:33:11.514Z,5.39
2023-05-19T01:35:40.283Z,5.38
2023-05-19T01:38:09.449Z,5.37
2023-05-19T01:40:37.520Z,5.13
2023-05-19T01:43:05.051Z,5.27
2023-05-19T01:45:33.768Z,5.27
2023-05-19T01:48:04.321Z,5.23
2023-05-19T01:50:32.429Z,5.20
2023-05-19T01:53:00.514Z,5.18
2023-05-19T01:55:27.520Z,5.13
2023-05-19T01:58:02.918Z,5.14
2023-05-19T02:00:42.322Z,5.11
2023-05-19T02:03:22.498Z,4.87
2023-05-19T02:05:55.435Z,5.00
2023-05-19T02:08:30.086Z,4.97
2023-05-19T02:11:02.456Z,4.94
2023-05-19T02:13:33.634Z,4.68
2023-05-19T02:16:05.240Z,4.97
2023-05-19T02:18:33.807Z,5.03
2023-05-19T02:21:00.387Z,4.94
2023-05-19T02:23:27.223Z,4.88
2023-05-19T02:25:53.886Z,4.86
2023-05-19T02:28:20.549Z,4.82
2023-05-19T02:30:47.155Z,4.84
2023-05-19T02:33:13.913Z,4.77
2023-05-19T02:35:43.940Z,4.80
2023-05-19T02:38:10.537Z,4.75
2023-05-19T02:40:37.172Z,4.72
2023-05-19T02:43:03.858Z,4.68
2023-05-19T02:45:30.479Z,4.57
2023-05-19T02:47:57.512Z,4.59
2023-05-19T02:50:25.264Z,4.59
2023-05-19T02:52:53.533Z,4.56
2023-05-19T02:55:20.244Z,4.27
2023-05-19T02:57:46.888Z,4.45
2023-05-19T03:00:14.327Z,4.43
2023-05-19T03:02:41.381Z,4.43
2023-05-19T03:05:09.037Z,4.21
2023-05-19T03:07:35.972Z,4.32
2023-05-19T03:10:04.666Z,4.26
2023-05-19T03:12:31.394Z,4.22
2023-05-19T03:14:58.277Z,4.13
2023-05-19T03:17:25.245Z,4.10
2023-05-19T03:19:51.864Z,4.13
2023-05-19T03:22:18.491Z,4.04
2023-05-19T03:24:45.055Z,4.04
2023-05-19T03:27:13.324Z,3.81
2023-05-19T03:29:39.905Z,3.99
2023-05-19T03:32:07.141Z,3.93
2023-05-19T03:34:33.908Z,3.89
2023-05-19T03:37:00.949Z,3.89
2023-05-19T03:39:27.569Z,3.83
2023-05-19T03:41:54.276Z,3.42
2023-05-19T03:44:22.426Z,3.79
2023-05-19T03:46:49.139Z,3.79
2023-05-19T03:49:18.840Z,3.78
2023-05-19T03:51:57.494Z,3.74
2023-05-19T03:54:31.813Z,3.76
2023-05-19T03:56:58.694Z,3.46
2023-05-19T03:59:26.608Z,3.80
2023-05-19T04:01:53.288Z,3.79
2023-05-19T04:04:20.027Z,3.77
2023-05-19T04:06:46.691Z,3.77
2023-05-19T04:09:16.029Z,3.77
2023-05-19T04:11:43.184Z,3.73
2023-05-19T04:14:09.813Z,3.74
2023-05-19T04:16:38.192Z,3.78
2023-05-19T04:19:04.897Z,3.73
2023-05-19T04:21:31.656Z,4.15
2023-05-19T04:23:58.277Z,4.46
2023-05-19T04:26:26.032Z,4.78
2023-05-19T04:28:52.815Z,5.08
2023-05-19T04:31:19.672Z,5.37
2023-05-19T04:33:47.769Z,5.66
2023-05-19T04:36:14.826Z,5.91
2023-05-19T04:38:43.213Z,6.20
2023-05-19T04:41:11.543Z,6.30
2023-05-19T04:43:39.771Z,6.68
2023-05-19T04:46:06.621Z,6.75
2023-05-19T04:48:33.610Z,6.76
2023-05-19T04:51:01.623Z,6.75
2023-05-19T04:53:28.564Z,6.74
2023-05-19T04:55:55.758Z,6.53
2023-05-19T04:58:22.795Z,6.66
2023-05-19T05:00:49.447Z,6.61
2023-05-19T05:03:16.391Z,6.62
2023-05-19T05:05:43.224Z,6.62
2023-05-19T05:08:11.911Z,6.64
2023-05-19T05:10:42.501Z,6.65
2023-05-19T05:13:11.194Z,6.68
2023-05-19T05:15:39.287Z,6.70
2023-05-19T05:18:07.515Z,6.73
2023-05-19T05:20:35.431Z,6.75
2023-05-19T05:23:02.699Z,6.47
2023-05-19T05:25:33.421Z,6.84
2023-05-19T05:28:00.301Z,6.89
2023-05-19T05:30:27.478Z,6.92
2023-05-19T05:32:54.467Z,6.97
2023-05-19T05:35:30.333Z,7.04
2023-05-19T05:37:57.232Z,7.11
2023-05-19T05:40:24.646Z,7.16
2023-05-19T05:42:53.543Z,7.21
2023-05-19T05:45:22.101Z,7.31
2023-05-19T05:47:53.023Z,7.43
2023-05-19T05:50:20.350Z,7.52
2023-05-19T05:52:48.251Z,7.36
2023-05-19T05:55:17.960Z,7.62
2023-05-19T05:57:44.858Z,7.71
2023-05-19T06:00:13.709Z,7.78
2023-05-19T06:02:43.027Z,7.84
2023-05-19T06:05:10.156Z,7.96
2023-05-19T06:07:36.811Z,8.06
2023-05-19T06:10:04.596Z,8.12
2023-05-19T06:12:31.624Z,8.22
2023-05-19T06:14:58.558Z,8.31
2023-05-19T06:17:41.434Z,8.44
2023-05-19T06:20:09.112Z,8.42
2023-05-19T06:22:36.094Z,8.72
2023-05-19T06:25:04.320Z,8.84
2023-05-19T06:27:32.644Z,8.99
2023-05-19T06:30:01.467Z,9.10
2023-05-19T06:32:31.757Z,8.97
2023-05-19T06:35:01.683Z,9.32
2023-05-19T06:37:28.266Z,9.44
2023-05-19T06:39:55.724Z,9.57
2023-05-19T06:42:22.424Z,9.68
2023-05-19T06:44:56.548Z,9.82
2023-05-19T06:47:23.820Z,9.68
2023-05-19T06:49:51.841Z,10.08
2023-05-19T06:52:20.043Z,10.23
2023-05-19T06:54:46.681Z,10.37
2023-05-19T06:57:13.279Z,10.48
2023-05-19T06:59:40.049Z,10.60
2023-05-19T07:02:07.389Z,10.68
2023-05-19T07:04:34.750Z,10.88
2023-05-19T07:07:01.433Z,11.03
2023-05-19T07:09:30.287Z,11.14
2023-05-19T07:11:57.074Z,11.17
2023-05-19T07:14:23.677Z,11.40
2023-05-19T07:16:51.001Z,11.52
2023-05-19T07:19:18.067Z,11.68
2023-05-19T07:21:44.904Z,11.83
2023-05-19T07:24:11.501Z,12.01
2023-05-19T07:26:40.072Z,12.11
2023-05-19T07:29:06.718Z,12.21
2023-05-19T07:31:33.849Z,12.37
2023-05-19T07:34:00.480Z,12.51
2023-05-19T07:36:27.235Z,12.66
2023-05-19T07:38:53.807Z,12.84
2023-05-19T07:41:20.513Z,13.01
2023-05-19T07:43:48.503Z,13.18
2023-05-19T07:46:15.171Z,13.37
2023-05-19T07:48:41.788Z,13.48
2023-05-19T07:51:08.673Z,13.59
2023-05-19T07:53:35.370Z,13.76
2023-05-19T07:56:02.025Z,13.94
2023-05-19T07:58:28.788Z,14.17
2023-05-19T08:00:58.186Z,14.28
2023-05-19T08:03:25.415Z,14.39
2023-05-19T08:05:52.083Z,14.55
2023-05-19T08:08:18.739Z,14.77
2023-05-19T08:10:45.797Z,14.89
2023-05-19T08:13:12.652Z,14.92
2023-05-19T08:15:39.549Z,15.15
2023-05-19T08:18:07.573Z,15.27
2023-05-19T08:20:34.396Z,15.33
2023-05-19T08:23:01.197Z,15.42
2023-05-19T08:25:27.780Z,15.58
2023-05-19T08:27:54.398Z,15.72
2023-05-19T08:30:21.342Z,15.75
2023-05-19T08:32:47.976Z,15.95
2023-05-19T08:35:15.916Z,16.14
2023-05-19T08:37:42.497Z,16.25
2023-05-19T08:40:15.776Z,16.25
2023-05-19T08:42:42.476Z,16.40
2023-05-19T08:45:09.859Z,16.46
2023-05-19T08:47:36.850Z,16.59
2023-05-19T08:50:06.015Z,16.77
2023-05-19T08:52:42.651Z,16.90
2023-05-19T08:55:15.468Z,16.97
2023-05-19T08:57:42.204Z,17.02
2023-05-19T09:00:10.398Z,17.12
2023-05-19T09:02:46.623Z,17.05
2023-05-19T09:05:23.082Z,17.55
2023-05-19T09:07:51.075Z,17.77
2023-05-19T09:10:17.909Z,17.93
2023-05-19T09:12:46.288Z,18.07
2023-05-19T09:15:13.952Z,18.30
2023-05-19T09:17:40.616Z,18.33
2023-05-19T09:20:08.213Z,18.47
2023-05-19T09:22:34.891Z,18.67
2023-05-19T09:25:02.859Z,18.90
2023-05-19T09:27:31.230Z,19.09
2023-05-19T09:30:07.357Z,19.23
2023-05-19T09:32:35.425Z,19.25
2023-05-19T09:35:02.853Z,19.48
2023-05-19T09:37:30.909Z,19.50
2023-05-19T09:39:57.646Z,19.69
2023-05-19T09:42:26.185Z,19.83
2023-05-19T09:44:59.294Z,19.91
2023-05-19T09:47:26.058Z,19.76
2023-05-19T09:49:53.847Z,19.70
2023-05-19T09:52:20.718Z,19.68
2023-05-19T09:54:48.586Z,19.69
2023-05-19T09:57:15.761Z,19.88
2023-05-19T09:59:44.575Z,20.08
2023-05-19T10:02:16.528Z,20.16
2023-05-19T10:04:43.994Z,20.10
2023-05-19T10:07:12.466Z,19.93
2023-05-19T10:09:40.921Z,19.90
2023-05-19T10:12:08.950Z,19.92
2023-05-19T10:14:36.529Z,19.85
2023-05-19T10:17:05.197Z,19.85
2023-05-19T10:19:31.959Z,19.71
2023-05-19T10:21:58.619Z,19.60
2023-05-19T10:24:25.237Z,19.61
2023-05-19T10:26:57.694Z,19.51
2023-05-19T10:29:28.151Z,19.61
2023-05-19T10:31:58.655Z,19.65
2023-05-19T10:34:47.714Z,19.49
2023-05-19T10:37:24.208Z,19.39
2023-05-19T10:39:51.255Z,19.46
2023-05-19T10:42:29.304Z,19.58
2023-05-19T10:45:03.251Z,19.61
2023-05-19T10:47:30.125Z,19.64
2023-05-19T10:50:00.555Z,19.76
2023-05-19T10:52:27.232Z,19.87
2023-05-19T10:54:54.150Z,19.78
2023-05-19T10:57:26.092Z,20.06
2023-05-19T10:59:52.771Z,20.08
2023-05-19T11:02:39.684Z,20.15
2023-05-19T11:05:11.779Z,20.12
2023-05-19T11:07:41.683Z,20.23
2023-05-19T11:10:08.923Z,20.30
2023-05-19T11:12:45.585Z,20.11
2023-05-19T11:15:13.809Z,20.18
2023-05-19T11:17:41.251Z,20.25
2023-05-19T11:20:20.230Z,20.34
2023-05-19T11:23:01.509Z,20.32
2023-05-19T11:25:41.337Z,20.46
2023-05-19T11:28:08.629Z,20.64
2023-05-19T11:30:35.321Z,20.73
2023-05-19T11:33:02.721Z,20.74
2023-05-19T11:35:34.662Z,20.70
2023-05-19T11:38:03.421Z,20.80
2023-05-19T11:40:30.683Z,20.75
2023-05-19T11:42:57.810Z,20.93
2023-05-19T11:45:25.035Z,20.85
2023-05-19T11:48:01.124Z,20.78
2023-05-19T11:50:31.061Z,20.97
2023-05-19T11:52:59.971Z,20.85
2023-05-19T11:55:26.911Z,21.14
2023-05-19T11:58:04.018Z,21.36
2023-05-19T12:00:36.100Z,21.44
2023-05-19T12:03:02.969Z,21.57
2023-05-19T12:05:32.469Z,21.59
2023-05-19T12:08:01.226Z,21.78
2023-05-19T12:10:28.985Z,21.74
2023-05-19T12:12:56.243Z,21.74
2023-05-19T12:15:24.016Z,21.87
2023-05-19T12:17:51.066Z,21.99
2023-05-19T12:20:18.956Z,21.97
2023-05-19T12:22:47.794Z,22.01
2023-05-19T12:25:15.437Z,22.13
2023-05-19T12:27:43.796Z,22.01
2023-05-19T12:30:11.373Z,22.06
2023-05-19T12:32:38.691Z,22.15
2023-05-19T12:35:06.363Z,22.31
2023-05-19T12:37:33.451Z,22.37
2023-05-19T12:40:01.968Z,22.41
2023-05-19T12:42:29.301Z,22.43
2023-05-19T12:44:55.836Z,22.42
2023-05-19T12:47:22.570Z,22.59
2023-05-19T12:49:55.196Z,22.74
2023-05-19T12:52:21.898Z,22.86
2023-05-19T12:54:48.611Z,22.87
2023-05-19T12:57:17.696Z,22.92
2023-05-19T12:59:44.879Z,22.87
2023-05-19T13:02:11.492Z,22.91
2023-05-19T13:04:38.149Z,22.94
2023-05-19T13:07:04.806Z,23.01
2023-05-19T13:09:31.370Z,22.98
2023-05-19T13:11:59.436Z,23.07
2023-05-19T13:14:27.559Z,23.19
2023-05-19T13:16:54.170Z,23.29
2023-05-19T13:21:50.288Z,23.86
2023-05-19T13:24:17.143Z,24.14
2023-05-19T13:26:43.741Z,24.26
2023-05-19T13:29:10.314Z,24.14
2023-05-19T13:31:38.342Z,23.96
2023-05-19T13:34:05.046Z,24.09
2023-05-19T13:36:31.717Z,24.28
2023-05-19T13:38:58.482Z,24.47
2023-05-19T13:41:25.194Z,24.62
2023-05-19T13:43:52.112Z,24.56
2023-05-19T13:46:22.177Z,24.59
2023-05-19T13:48:54.776Z,24.55
2023-05-19T13:51:21.368Z,24.82
2023-05-19T13:53:48.006Z,24.84
2023-05-19T13:56:14.564Z,25.05
2023-05-19T13:58:41.320Z,25.22
2023-05-19T14:01:07.916Z,25.28
2023-05-19T14:03:34.760Z,25.63
2023-05-19T14:06:02.992Z,25.94
2023-05-19T14:08:29.637Z,25.92
2023-05-19T14:10:56.341Z,25.77
2023-05-19T14:13:31.431Z,25.39
2023-05-19T14:15:59.651Z,25.38
2023-05-19T14:18:26.298Z,25.54
2023-05-19T14:20:52.876Z,25.56
2023-05-19T14:23:20.785Z,25.06
2023-05-19T14:25:47.486Z,24.58
2023-05-19T14:28:14.056Z,24.75
2023-05-19T14:30:40.670Z,25.22
2023-05-19T14:33:07.751Z,25.56
2023-05-19T14:35:34.388Z,25.94
2023-05-19T14:38:00.926Z,25.98
2023-05-19T14:40:30.259Z,25.98
2023-05-19T14:42:56.948Z,26.17
2023-05-19T14:45:23.541Z,26.42
2023-05-19T14:47:50.211Z,26.55
2023-05-19T14:50:16.780Z,26.45
2023-05-19T14:52:43.361Z,25.78
2023-05-19T14:55:12.658Z,25.79
2023-05-19T14:57:40.588Z,25.62
2023-05-19T15:00:08.186Z,25.26
2023-05-19T15:02:34.794Z,25.11
2023-05-19T15:05:01.693Z,24.82
2023-05-19T15:07:28.279Z,24.61
2023-05-19T15:09:55.084Z,24.62
2023-05-19T15:12:21.699Z,24.47
2023-05-19T15:14:49.884Z,24.44
2023-05-19T15:17:16.504Z,24.45
2023-05-19T15:19:43.126Z,25.11
2023-05-19T15:22:09.878Z,25.15
2023-05-19T15:24:36.499Z,25.20
2023-05-19T15:27:03.251Z,25.12
2023-05-19T15:29:29.794Z,25.34
2023-05-19T15:31:57.952Z,25.37
2023-05-19T15:34:24.569Z,25.35
2023-05-19T15:36:51.133Z,25.20
2023-05-19T15:39:17.733Z,25.04
2023-05-19T15:41:44.329Z,24.68
2023-05-19T15:44:11.308Z,24.45
2023-05-19T15:46:37.995Z,24.15
2023-05-19T15:49:05.922Z,23.93
2023-05-19T15:51:32.646Z,23.73
2023-05-19T15:53:59.255Z,23.49
2023-05-19T15:56:25.834Z,23.39
2023-05-19T15:58:52.406Z,23.12
2023-05-19T16:01:19.169Z,23.27
2023-05-19T16:03:46.009Z,23.05
2023-05-19T16:06:14.377Z,23.07
2023-05-19T16:08:40.973Z,23.05
2023-05-19T16:11:07.516Z,23.05
2023-05-19T16:13:34.162Z,23.06
2023-05-19T16:16:00.930Z,23.02
2023-05-19T16:18:27.805Z,22.94
2023-05-19T16:20:54.502Z,22.98
2023-05-19T16:23:22.454Z,23.08
2023-05-19T16:25:48.990Z,23.05
2023-05-19T16:28:15.530Z,22.97
2023-05-19T16:30:42.608Z,22.87
2023-05-19T16:33:09.239Z,22.76
2023-05-19T16:35:35.886Z,22.64
2023-05-19T16:38:02.783Z,22.63
2023-05-19T16:40:31.040Z,22.53
2023-05-19T16:42:57.789Z,22.47
2023-05-19T16:45:24.389Z,22.36
2023-05-19T16:47:51.008Z,22.41
2023-05-19T16:50:17.684Z,22.31
2023-05-19T16:52:44.274Z,22.21
2023-05-19T16:55:10.880Z,22.12
2023-05-19T16:57:38.837Z,22.50
2023-05-19T17:00:06.711Z,22.69
2023-05-19T17:02:33.435Z,22.60
2023-05-19T17:05:00.039Z,22.73
2023-05-19T17:07:27.717Z,22.66
2023-05-19T17:09:55.999Z,22.47
2023-05-19T17:12:22.772Z,22.26
2023-05-19T17:14:50.872Z,21.96
2023-05-19T17:17:17.827Z,21.79
2023-05-19T17:19:44.454Z,21.77
2023-05-19T17:22:12.338Z,21.72
2023-05-19T17:24:38.976Z,21.70
2023-05-19T17:27:05.617Z,21.68
2023-05-19T17:29:32.492Z,21.62
2023-05-19T17:32:01.556Z,21.72
2023-05-19T17:34:28.178Z,21.71
2023-05-19T17:36:55.070Z,21.73
2023-05-19T17:39:21.791Z,21.83
2023-05-19T17:41:48.359Z,21.89
2023-05-19T17:44:15.108Z,21.91
2023-05-19T17:46:41.963Z,21.76
2023-05-19T17:49:09.919Z,21.70
2023-05-19T17:51:37.597Z,21.61
2023-05-19T17:54:05.072Z,21.47
2023-05-19T17:56:33.918Z,21.34
2023-05-19T17:59:00.882Z,21.00
2023-05-19T18:01:27.953Z,21.10
2023-05-19T18:03:55.793Z,20.95
2023-05-19T18:06:25.764Z,20.71
2023-05-19T18:08:55.206Z,20.58
2023-05-19T18:11:22.383Z,20.47
2023-05-19T18:13:49.300Z,20.51
2023-05-19T18:16:16.427Z,20.36
2023-05-19T18:18:45.799Z,20.27
2023-05-19T18:21:12.418Z,20.30
2023-05-19T18:23:40.515Z,20.22
2023-05-19T18:26:07.192Z,19.98
2023-05-19T18:28:33.853Z,20.08
2023-05-19T18:31:00.685Z,20.00
2023-05-19T18:33:28.573Z,19.79
2023-05-19T18:35:57.306Z,19.82
2023-05-19T18:38:23.899Z,19.84
2023-05-19T18:40:52.400Z,19.64
2023-05-19T18:43:19.417Z,19.32
2023-05-19T18:45:47.008Z,19.60
2023-05-19T18:48:15.932Z,19.45
2023-05-19T18:50:42.676Z,19.43
2023-05-19T18:53:09.249Z,19.20
2023-05-19T18:55:39.989Z,19.13
2023-05-19T18:58:08.359Z,19.02
2023-05-19T19:00:38.059Z,18.83
2023-05-19T19:03:05.051Z,18.94
2023-05-19T19:05:31.667Z,18.89
2023-05-19T19:07:59.366Z,18.71
2023-05-19T19:10:26.234Z,18.63
2023-05-19T19:12:54.319Z,18.63
2023-05-19T19:15:23.371Z,18.45
2023-05-19T19:17:53.464Z,18.35
2023-05-19T19:20:20.118Z,18.23
2023-05-19T19:22:46.969Z,18.10
2023-05-19T19:25:13.827Z,17.92
2023-05-19T19:27:40.505Z,17.86
2023-05-19T19:30:10.175Z,17.61
2023-05-19T19:32:38.147Z,17.61
2023-05-19T19:35:05.502Z,17.30
2023-05-19T19:37:32.125Z,17.13
2023-05-19T19:40:00.932Z,17.02
2023-05-19T19:42:27.549Z,16.51
2023-05-19T19:44:55.044Z,16.77
2023-05-19T19:47:22.230Z,16.53
2023-05-19T19:49:50.416Z,16.38
2023-05-19T19:52:17.033Z,16.15
2023-05-19T19:54:43.630Z,16.05
2023-05-19T19:57:10.231Z,15.91
2023-05-19T19:59:37.153Z,15.82
2023-05-19T20:02:04.175Z,15.68
2023-05-19T20:04:30.870Z,15.29
2023-05-19T20:06:59.222Z,15.52
2023-05-19T20:09:29.226Z,15.20
2023-05-19T20:11:55.769Z,15.18
2023-05-19T20:14:22.583Z,15.04
2023-05-19T20:16:50.326Z,14.52
2023-05-19T20:19:17.112Z,14.76
2023-05-19T20:21:43.672Z,14.61
2023-05-19T20:24:11.722Z,14.45
2023-05-19T20:26:38.294Z,13.90
2023-05-19T20:29:04.821Z,14.18
2023-05-19T20:31:31.360Z,14.08
2023-05-19T20:34:01.824Z,13.66
2023-05-19T20:36:28.598Z,13.75
2023-05-19T20:38:55.404Z,13.47
2023-05-19T20:41:23.642Z,13.46
2023-05-19T20:43:50.491Z,13.34
2023-05-19T20:46:17.209Z,13.21
2023-05-19T20:48:45.054Z,13.09
2023-05-19T20:51:11.971Z,13.00
2023-05-19T20:53:38.540Z,12.76
2023-05-19T20:56:05.629Z,12.78
2023-05-19T20:58:33.591Z,12.70
2023-05-19T21:01:00.241Z,12.60
2023-05-19T21:03:27.152Z,12.41
2023-05-19T21:05:54.554Z,12.33
2023-05-19T21:08:21.390Z,12.26
2023-05-19T21:10:49.578Z,12.02
2023-05-19T21:13:16.401Z,12.09
2023-05-19T21:15:45.561Z,11.90
2023-05-19T21:18:12.673Z,11.79
2023-05-19T21:20:39.817Z,11.91
2023-05-19T21:23:07.701Z,11.90
2023-05-19T21:25:34.631Z,11.77
2023-05-19T21:28:01.490Z,11.64
2023-05-19T21:30:28.359Z,11.63
2023-05-19T21:32:56.408Z,11.71
2023-05-19T21:35:23.073Z,11.78
2023-05-19T21:37:49.932Z,11.38
2023-05-19T21:40:16.610Z,11.66
2023-05-19T21:42:43.316Z,11.58
2023-05-19T21:45:11.136Z,11.57
2023-05-19T21:47:37.811Z,11.53
2023-05-19T21:50:07.886Z,11.40
2023-05-19T21:52:34.447Z,11.42
2023-05-19T21:55:01.029Z,11.30
2023-05-19T21:57:27.576Z,11.36
2023-05-19T21:59:54.091Z,11.33
2023-05-19T22:02:20.756Z,11.26
2023-05-19T22:04:47.408Z,11.22
2023-05-19T22:07:15.392Z,11.16
2023-05-19T22:09:42.058Z,11.11
2023-05-19T22:12:08.723Z,11.01
2023-05-19T22:14:35.423Z,10.71
2023-05-19T22:17:02.012Z,10.95
2023-05-19T22:19:28.715Z,10.87
2023-05-19T22:22:02.033Z,10.68
2023-05-19T22:24:38.634Z,10.27
2023-05-19T22:27:07.404Z,10.64
2023-05-19T22:29:33.989Z,10.61
2023-05-19T22:32:00.627Z,10.52
2023-05-19T22:34:27.333Z,10.46
2023-05-19T22:36:54.024Z,10.40
2023-05-19T22:39:20.622Z,10.35
2023-05-19T22:41:48.526Z,10.29
2023-05-19T22:44:15.165Z,10.25
2023-05-19T22:46:41.808Z,9.97
2023-05-19T22:49:08.415Z,10.13
2023-05-19T22:51:35.262Z,9.95
2023-05-19T22:54:01.980Z,9.96
2023-05-19T22:56:28.543Z,9.92
2023-05-19T22:58:56.575Z,9.88
2023-05-19T23:01:23.198Z,9.86
2023-05-19T23:03:49.877Z,9.80
2023-05-19T23:06:16.457Z,9.71
2023-05-19T23:08:46.631Z,9.62
2023-05-19T23:11:13.356Z,9.58
2023-05-19T23:13:39.914Z,9.51
2023-05-19T23:16:07.878Z,9.53
2023-05-19T23:18:34.441Z,9.50
2023-05-19T23:21:00.999Z,9.44
2023-05-19T23:23:29.230Z,9.41
2023-05-19T23:25:55.897Z,9.38
2023-05-19T23:28:22.737Z,9.32
2023-05-19T23:30:52.556Z,9.27
2023-05-19T23:33:20.648Z,9.08
2023-05-19T23:35:47.340Z,9.18
2023-05-19T23:38:14.098Z,9.17
2023-05-19T23:40:40.675Z,9.15
2023-05-19T23:43:07.428Z,9.05
2023-05-19T23:45:34.227Z,9.06
2023-05-19T23:48:01.014Z,9.12
2023-05-19T23:50:29.075Z,9.04
2023-05-19T23:52:55.702Z,9.05
2023-05-19T23:55:22.285Z,9.01
2023-05-19T23:57:48.935Z,9.00
